Sawyer County Airport
KHYR : now visible

Airfield :











YOU CAN JOIN US ON...

 
LOGIN :

Register | Disclaimer

   EN    FR    IT 

 









Legend :    VFR   Marginal VFR   IFR   Intensive IFR   Very Intensive IFR
Visi :
Ceiling :
>= 8 km
>= 3000ft
5 to 8 km
1000 to 3000 ft
1500m to 5 km
500 to 1000 ft
800 to 1500m
200 to 500 ft
< 800m
< 200 ft
Symbols :   Thunderstorms  Fog  Heavy snow  Heavy precipitations  Wind > 20 kt






- Airport Elevation : 1216 ft


KHYR - Sawyer County

CURRENT METAR :
  • 211553Z AUTO 24010G19KT 10SM BKN015 OVC043 01/M02 A3009 RMK AO2 SLP202 T00111022

EXPIRED METARs :
  • 211521Z AUTO 24007G16KT 10SM BKN014 BKN021 OVC042 01/M02 A3007 RMK AO2 T00111017
  • 211453Z AUTO 23007G20KT 10SM BKN015 BKN023 OVC028 01/M02 A3005 RMK AO2 SLP192 60000 T00111022 50012
  • 211449Z AUTO 23010G20KT 10SM BKN015 OVC023 01/M02 A3005 RMK AO2
  • 211438Z AUTO 23007G17KT 10SM BKN014 OVC022 01/M02 A3005 RMK AO2 T00111017
  • 211412Z AUTO 23008KT 10SM SCT011 BKN017 OVC041 01/M02 A3006 RMK AO2 T00111017
  • 211353Z AUTO 23008KT 10SM BKN011 OVC038 01/M01 A3004 RMK AO2 RAE1255 SLP190 P0000 T00111011
  • 211338Z AUTO 24008G17KT 10SM SCT008 OVC012 01/M01 A3004 RMK AO2 RAE1255 P0000 T00061011

TAF KHYR
Valid from the 21 at 12:00 until the 22 at 12:00 UTC


211125Z 2112/2212 25007KT P6SM OVC015
FM211400 25010G18KT P6SM OVC015
FM212000 26008G18KT P6SM BKN035
FM220000 VRB03KT P6SM BKN030
KZMP FIR / North America



MET'MAP, your aeronautical weather chart ! - Copyright ORBIFLY December 2007 - Disclaimer

ORBIFLY MET'MAP TEAM :

Programming & Development : Alexandra Zaïnal
Concept & original design : Baudouin d'Aumeries
Assistance for programming : Marc-Olivier Méhu
Technical & hardware support : Manuel Goepfert

Contact : metmap@orbifly.com




SOURCES & CREDITS :

   NOAA       Earth
Advisory